sensor_id;sensor_type;location;lat;lon;timestamp;P1;durP1;ratioP1;P2;durP2;ratioP2
17207;SDS011;8720;48.488;9.202;2023-11-19T00:00:46;5.20;;;4.60;;
17207;SDS011;8720;48.488;9.202;2023-11-19T00:03:14;7.30;;;5.47;;
17207;SDS011;8720;48.488;9.202;2023-11-19T00:05:41;5.77;;;4.77;;
17207;SDS011;8720;48.488;9.202;2023-11-19T00:08:09;5.67;;;5.17;;
17207;SDS011;8720;48.488;9.202;2023-11-19T00:10:38;7.57;;;5.03;;
17207;SDS011;8720;48.488;9.202;2023-11-19T00:13:05;6.27;;;5.50;;
17207;SDS011;8720;48.488;9.202;2023-11-19T00:15:33;6.90;;;5.30;;
17207;SDS011;8720;48.488;9.202;2023-11-19T00:18:00;4.60;;;4.20;;
17207;SDS011;8720;48.488;9.202;2023-11-19T00:20:30;5.53;;;4.13;;
17207;SDS011;8720;48.488;9.202;2023-11-19T00:22:57;4.67;;;4.27;;
17207;SDS011;8720;48.488;9.202;2023-11-19T00:25:26;5.73;;;4.90;;
17207;SDS011;8720;48.488;9.202;2023-11-19T00:27:55;3.67;;;3.20;;
17207;SDS011;8720;48.488;9.202;2023-11-19T00:30:22;4.00;;;3.60;;
17207;SDS011;8720;48.488;9.202;2023-11-19T00:32:50;4.67;;;3.43;;
17207;SDS011;8720;48.488;9.202;2023-11-19T00:35:17;4.40;;;4.00;;
17207;SDS011;8720;48.488;9.202;2023-11-19T00:37:45;3.93;;;3.23;;
17207;SDS011;8720;48.488;9.202;2023-11-19T00:40:14;6.17;;;3.50;;
17207;SDS011;8720;48.488;9.202;2023-11-19T00:42:43;5.50;;;3.73;;
17207;SDS011;8720;48.488;9.202;2023-11-19T00:45:12;4.80;;;3.23;;
17207;SDS011;8720;48.488;9.202;2023-11-19T00:47:40;3.90;;;3.60;;
17207;SDS011;8720;48.488;9.202;2023-11-19T00:50:08;3.53;;;3.17;;
17207;SDS011;8720;48.488;9.202;2023-11-19T00:52:36;3.63;;;3.30;;
17207;SDS011;8720;48.488;9.202;2023-11-19T00:55:04;3.43;;;3.13;;
17207;SDS011;8720;48.488;9.202;2023-11-19T00:57:32;3.30;;;2.83;;
17207;SDS011;8720;48.488;9.202;2023-11-19T01:00:00;2.97;;;2.70;;
17207;SDS011;8720;48.488;9.202;2023-11-19T01:02:35;3.10;;;2.50;;
17207;SDS011;8720;48.488;9.202;2023-11-19T01:05:03;2.90;;;2.43;;
17207;SDS011;8720;48.488;9.202;2023-11-19T01:07:31;4.27;;;2.97;;
17207;SDS011;8720;48.488;9.202;2023-11-19T01:09:59;5.10;;;2.23;;
17207;SDS011;8720;48.488;9.202;2023-11-19T01:12:28;2.53;;;2.20;;
17207;SDS011;8720;48.488;9.202;2023-11-19T01:14:56;2.37;;;2.17;;
17207;SDS011;8720;48.488;9.202;2023-11-19T01:17:23;2.90;;;2.60;;
17207;SDS011;8720;48.488;9.202;2023-11-19T01:19:52;3.13;;;2.20;;
17207;SDS011;8720;48.488;9.202;2023-11-19T01:22:20;2.33;;;2.10;;
17207;SDS011;8720;48.488;9.202;2023-11-19T01:24:48;2.03;;;1.83;;
17207;SDS011;8720;48.488;9.202;2023-11-19T01:27:17;2.23;;;1.87;;
17207;SDS011;8720;48.488;9.202;2023-11-19T01:29:44;2.00;;;1.80;;
17207;SDS011;8720;48.488;9.202;2023-11-19T01:32:12;2.37;;;1.73;;
17207;SDS011;8720;48.488;9.202;2023-11-19T01:34:39;1.40;;;1.30;;
17207;SDS011;8720;48.488;9.202;2023-11-19T01:37:09;2.40;;;1.33;;
17207;SDS011;8720;48.488;9.202;2023-11-19T01:39:38;1.87;;;1.43;;
17207;SDS011;8720;48.488;9.202;2023-11-19T01:42:05;2.50;;;1.60;;
17207;SDS011;8720;48.488;9.202;2023-11-19T01:44:33;1.47;;;1.30;;
17207;SDS011;8720;48.488;9.202;2023-11-19T01:47:00;2.07;;;1.20;;
17207;SDS011;8720;48.488;9.202;2023-11-19T01:49:29;1.77;;;1.27;;
17207;SDS011;8720;48.488;9.202;2023-11-19T01:51:58;1.90;;;1.33;;
17207;SDS011;8720;48.488;9.202;2023-11-19T01:54:28;2.00;;;1.47;;
17207;SDS011;8720;48.488;9.202;2023-11-19T01:56:56;1.73;;;1.47;;
17207;SDS011;8720;48.488;9.202;2023-11-19T01:59:23;2.07;;;1.80;;
17207;SDS011;8720;48.488;9.202;2023-11-19T02:01:52;1.90;;;1.43;;
17207;SDS011;8720;48.488;9.202;2023-11-19T02:04:20;1.50;;;1.40;;
17207;SDS011;8720;48.488;9.202;2023-11-19T02:06:48;1.90;;;1.70;;
17207;SDS011;8720;48.488;9.202;2023-11-19T02:09:22;1.97;;;1.20;;
17207;SDS011;8720;48.488;9.202;2023-11-19T02:11:51;2.53;;;1.40;;
17207;SDS011;8720;48.488;9.202;2023-11-19T02:14:19;2.20;;;1.50;;
17207;SDS011;8720;48.488;9.202;2023-11-19T02:16:52;1.90;;;1.40;;
17207;SDS011;8720;48.488;9.202;2023-11-19T02:19:19;1.50;;;1.00;;
17207;SDS011;8720;48.488;9.202;2023-11-19T02:21:47;1.63;;;0.80;;
17207;SDS011;8720;48.488;9.202;2023-11-19T02:24:14;1.47;;;1.10;;
17207;SDS011;8720;48.488;9.202;2023-11-19T02:26:51;1.50;;;0.80;;
17207;SDS011;8720;48.488;9.202;2023-11-19T02:29:30;1.73;;;1.00;;
17207;SDS011;8720;48.488;9.202;2023-11-19T02:32:00;1.20;;;0.80;;
17207;SDS011;8720;48.488;9.202;2023-11-19T02:34:28;1.83;;;0.77;;
17207;SDS011;8720;48.488;9.202;2023-11-19T02:36:56;2.13;;;0.90;;
17207;SDS011;8720;48.488;9.202;2023-11-19T02:39:23;1.17;;;0.77;;
17207;SDS011;8720;48.488;9.202;2023-11-19T02:41:51;1.10;;;0.83;;
17207;SDS011;8720;48.488;9.202;2023-11-19T02:44:19;1.00;;;0.80;;
17207;SDS011;8720;48.488;9.202;2023-11-19T02:46:48;0.90;;;0.70;;
17207;SDS011;8720;48.488;9.202;2023-11-19T02:49:15;1.20;;;0.77;;
17207;SDS011;8720;48.488;9.202;2023-11-19T02:51:42;1.17;;;0.80;;
17207;SDS011;8720;48.488;9.202;2023-11-19T02:54:10;2.60;;;0.90;;
17207;SDS011;8720;48.488;9.202;2023-11-19T02:56:37;1.00;;;0.60;;
17207;SDS011;8720;48.488;9.202;2023-11-19T02:59:13;1.10;;;0.73;;
17207;SDS011;8720;48.488;9.202;2023-11-19T03:01:53;1.00;;;0.70;;
17207;SDS011;8720;48.488;9.202;2023-11-19T03:04:21;1.10;;;0.80;;
17207;SDS011;8720;48.488;9.202;2023-11-19T03:06:48;1.10;;;0.70;;
17207;SDS011;8720;48.488;9.202;2023-11-19T03:09:16;1.10;;;0.70;;
17207;SDS011;8720;48.488;9.202;2023-11-19T03:11:43;2.13;;;0.70;;
17207;SDS011;8720;48.488;9.202;2023-11-19T03:14:10;1.57;;;0.80;;
17207;SDS011;8720;48.488;9.202;2023-11-19T03:16:38;1.00;;;0.83;;
17207;SDS011;8720;48.488;9.202;2023-11-19T03:19:06;1.00;;;0.70;;
17207;SDS011;8720;48.488;9.202;2023-11-19T03:21:33;1.20;;;0.80;;
17207;SDS011;8720;48.488;9.202;2023-11-19T03:24:02;1.00;;;0.70;;
17207;SDS011;8720;48.488;9.202;2023-11-19T03:26:29;1.00;;;0.70;;
17207;SDS011;8720;48.488;9.202;2023-11-19T03:28:59;1.10;;;0.70;;
17207;SDS011;8720;48.488;9.202;2023-11-19T03:31:26;2.47;;;0.80;;
17207;SDS011;8720;48.488;9.202;2023-11-19T03:33:54;1.50;;;0.70;;
17207;SDS011;8720;48.488;9.202;2023-11-19T03:36:23;1.10;;;0.77;;
17207;SDS011;8720;48.488;9.202;2023-11-19T03:38:50;1.00;;;0.80;;
17207;SDS011;8720;48.488;9.202;2023-11-19T03:41:18;2.80;;;0.70;;
17207;SDS011;8720;48.488;9.202;2023-11-19T03:43:46;1.33;;;0.70;;
17207;SDS011;8720;48.488;9.202;2023-11-19T03:46:17;0.97;;;0.67;;
17207;SDS011;8720;48.488;9.202;2023-11-19T03:48:45;1.70;;;0.90;;
17207;SDS011;8720;48.488;9.202;2023-11-19T03:51:12;2.50;;;0.80;;
17207;SDS011;8720;48.488;9.202;2023-11-19T03:53:42;2.00;;;0.93;;
17207;SDS011;8720;48.488;9.202;2023-11-19T03:56:10;1.80;;;0.80;;
17207;SDS011;8720;48.488;9.202;2023-11-19T03:58:37;1.00;;;0.70;;
17207;SDS011;8720;48.488;9.202;2023-11-19T04:01:05;5.20;;;0.90;;
17207;SDS011;8720;48.488;9.202;2023-11-19T04:03:37;0.90;;;0.60;;
17207;SDS011;8720;48.488;9.202;2023-11-19T04:06:05;1.20;;;0.60;;
17207;SDS011;8720;48.488;9.202;2023-11-19T04:08:33;1.00;;;0.70;;
17207;SDS011;8720;48.488;9.202;2023-11-19T04:11:01;1.10;;;0.60;;
17207;SDS011;8720;48.488;9.202;2023-11-19T04:13:30;1.70;;;0.70;;
17207;SDS011;8720;48.488;9.202;2023-11-19T04:15:57;1.00;;;0.70;;
17207;SDS011;8720;48.488;9.202;2023-11-19T04:18:25;1.10;;;0.60;;
17207;SDS011;8720;48.488;9.202;2023-11-19T04:20:52;1.10;;;0.60;;
17207;SDS011;8720;48.488;9.202;2023-11-19T04:23:20;1.00;;;0.70;;
17207;SDS011;8720;48.488;9.202;2023-11-19T04:25:47;1.70;;;0.70;;
17207;SDS011;8720;48.488;9.202;2023-11-19T04:28:16;0.97;;;0.67;;
17207;SDS011;8720;48.488;9.202;2023-11-19T04:30:46;0.90;;;0.60;;
17207;SDS011;8720;48.488;9.202;2023-11-19T04:33:13;2.90;;;0.60;;
17207;SDS011;8720;48.488;9.202;2023-11-19T04:35:41;1.00;;;0.60;;
17207;SDS011;8720;48.488;9.202;2023-11-19T04:38:08;0.87;;;0.57;;
17207;SDS011;8720;48.488;9.202;2023-11-19T04:40:36;1.67;;;0.70;;
17207;SDS011;8720;48.488;9.202;2023-11-19T04:43:03;1.30;;;0.70;;
17207;SDS011;8720;48.488;9.202;2023-11-19T04:45:32;2.80;;;0.60;;
17207;SDS011;8720;48.488;9.202;2023-11-19T04:47:59;1.00;;;0.70;;
17207;SDS011;8720;48.488;9.202;2023-11-19T04:50:26;1.00;;;0.60;;
17207;SDS011;8720;48.488;9.202;2023-11-19T04:52:54;0.90;;;0.50;;
17207;SDS011;8720;48.488;9.202;2023-11-19T04:55:21;0.87;;;0.50;;
17207;SDS011;8720;48.488;9.202;2023-11-19T04:57:48;0.87;;;0.50;;
17207;SDS011;8720;48.488;9.202;2023-11-19T05:00:16;1.90;;;0.60;;
17207;SDS011;8720;48.488;9.202;2023-11-19T05:02:45;1.63;;;0.70;;
17207;SDS011;8720;48.488;9.202;2023-11-19T05:05:12;1.00;;;0.60;;
17207;SDS011;8720;48.488;9.202;2023-11-19T05:07:41;0.90;;;0.60;;
17207;SDS011;8720;48.488;9.202;2023-11-19T05:10:09;1.00;;;0.70;;
17207;SDS011;8720;48.488;9.202;2023-11-19T05:12:36;0.87;;;0.50;;
17207;SDS011;8720;48.488;9.202;2023-11-19T05:15:04;0.90;;;0.50;;
17207;SDS011;8720;48.488;9.202;2023-11-19T05:17:33;1.13;;;0.57;;
17207;SDS011;8720;48.488;9.202;2023-11-19T05:20:04;1.60;;;0.53;;
17207;SDS011;8720;48.488;9.202;2023-11-19T05:22:38;0.87;;;0.50;;
17207;SDS011;8720;48.488;9.202;2023-11-19T05:25:07;0.90;;;0.60;;
17207;SDS011;8720;48.488;9.202;2023-11-19T05:27:35;0.90;;;0.50;;
17207;SDS011;8720;48.488;9.202;2023-11-19T05:30:03;0.83;;;0.50;;
17207;SDS011;8720;48.488;9.202;2023-11-19T05:32:33;1.33;;;0.73;;
17207;SDS011;8720;48.488;9.202;2023-11-19T05:35:00;0.90;;;0.60;;
17207;SDS011;8720;48.488;9.202;2023-11-19T05:37:29;1.27;;;0.70;;
17207;SDS011;8720;48.488;9.202;2023-11-19T05:39:57;0.90;;;0.50;;
17207;SDS011;8720;48.488;9.202;2023-11-19T05:42:25;0.90;;;0.60;;
17207;SDS011;8720;48.488;9.202;2023-11-19T05:44:52;0.90;;;0.60;;
17207;SDS011;8720;48.488;9.202;2023-11-19T05:47:20;0.90;;;0.53;;
17207;SDS011;8720;48.488;9.202;2023-11-19T05:49:47;0.90;;;0.60;;
17207;SDS011;8720;48.488;9.202;2023-11-19T05:52:14;1.40;;;0.50;;
17207;SDS011;8720;48.488;9.202;2023-11-19T05:54:43;0.90;;;0.50;;
17207;SDS011;8720;48.488;9.202;2023-11-19T05:57:12;1.60;;;0.67;;
17207;SDS011;8720;48.488;9.202;2023-11-19T05:59:39;0.87;;;0.50;;
17207;SDS011;8720;48.488;9.202;2023-11-19T06:02:06;0.90;;;0.60;;
17207;SDS011;8720;48.488;9.202;2023-11-19T06:04:34;0.90;;;0.50;;
17207;SDS011;8720;48.488;9.202;2023-11-19T06:07:01;1.10;;;0.50;;
17207;SDS011;8720;48.488;9.202;2023-11-19T06:09:28;2.17;;;0.60;;
17207;SDS011;8720;48.488;9.202;2023-11-19T06:12:00;3.83;;;0.67;;
17207;SDS011;8720;48.488;9.202;2023-11-19T06:14:29;1.00;;;0.60;;
17207;SDS011;8720;48.488;9.202;2023-11-19T06:16:56;1.53;;;0.50;;
17207;SDS011;8720;48.488;9.202;2023-11-19T06:19:23;1.33;;;0.60;;
17207;SDS011;8720;48.488;9.202;2023-11-19T06:21:50;0.90;;;0.50;;
17207;SDS011;8720;48.488;9.202;2023-11-19T06:24:18;1.00;;;0.60;;
17207;SDS011;8720;48.488;9.202;2023-11-19T06:26:45;2.00;;;0.60;;
17207;SDS011;8720;48.488;9.202;2023-11-19T06:29:14;0.90;;;0.57;;
17207;SDS011;8720;48.488;9.202;2023-11-19T06:31:44;0.83;;;0.50;;
17207;SDS011;8720;48.488;9.202;2023-11-19T06:34:13;1.07;;;0.50;;
17207;SDS011;8720;48.488;9.202;2023-11-19T06:36:41;1.00;;;0.50;;
17207;SDS011;8720;48.488;9.202;2023-11-19T06:39:08;1.43;;;0.60;;
17207;SDS011;8720;48.488;9.202;2023-11-19T06:41:37;0.90;;;0.60;;
17207;SDS011;8720;48.488;9.202;2023-11-19T06:44:04;2.23;;;0.57;;
17207;SDS011;8720;48.488;9.202;2023-11-19T06:46:33;1.00;;;0.50;;
17207;SDS011;8720;48.488;9.202;2023-11-19T06:49:01;0.90;;;0.60;;
17207;SDS011;8720;48.488;9.202;2023-11-19T06:51:28;0.83;;;0.50;;
17207;SDS011;8720;48.488;9.202;2023-11-19T06:53:56;0.90;;;0.50;;
17207;SDS011;8720;48.488;9.202;2023-11-19T06:56:24;1.23;;;0.60;;
17207;SDS011;8720;48.488;9.202;2023-11-19T06:58:51;1.00;;;0.50;;
17207;SDS011;8720;48.488;9.202;2023-11-19T07:01:19;0.90;;;0.57;;
17207;SDS011;8720;48.488;9.202;2023-11-19T07:03:48;0.90;;;0.50;;
17207;SDS011;8720;48.488;9.202;2023-11-19T07:06:16;0.80;;;0.50;;
17207;SDS011;8720;48.488;9.202;2023-11-19T07:08:43;1.00;;;0.60;;
17207;SDS011;8720;48.488;9.202;2023-11-19T07:11:12;1.43;;;0.70;;
17207;SDS011;8720;48.488;9.202;2023-11-19T07:13:41;2.73;;;0.80;;
17207;SDS011;8720;48.488;9.202;2023-11-19T07:16:11;1.30;;;0.60;;
17207;SDS011;8720;48.488;9.202;2023-11-19T07:18:40;2.10;;;0.60;;
17207;SDS011;8720;48.488;9.202;2023-11-19T07:21:10;0.90;;;0.60;;
17207;SDS011;8720;48.488;9.202;2023-11-19T07:23:37;0.97;;;0.63;;
17207;SDS011;8720;48.488;9.202;2023-11-19T07:26:05;0.90;;;0.60;;
17207;SDS011;8720;48.488;9.202;2023-11-19T07:28:34;1.00;;;0.60;;
17207;SDS011;8720;48.488;9.202;2023-11-19T07:31:02;0.90;;;0.60;;
17207;SDS011;8720;48.488;9.202;2023-11-19T07:33:30;2.57;;;0.80;;
17207;SDS011;8720;48.488;9.202;2023-11-19T07:35:57;2.33;;;1.83;;
17207;SDS011;8720;48.488;9.202;2023-11-19T07:38:26;1.40;;;1.07;;
17207;SDS011;8720;48.488;9.202;2023-11-19T07:40:53;1.10;;;0.60;;
17207;SDS011;8720;48.488;9.202;2023-11-19T07:43:20;0.83;;;0.50;;
17207;SDS011;8720;48.488;9.202;2023-11-19T07:45:48;0.90;;;0.50;;
17207;SDS011;8720;48.488;9.202;2023-11-19T07:48:15;0.90;;;0.60;;
17207;SDS011;8720;48.488;9.202;2023-11-19T07:50:47;0.90;;;0.60;;
17207;SDS011;8720;48.488;9.202;2023-11-19T07:53:16;1.93;;;0.70;;
17207;SDS011;8720;48.488;9.202;2023-11-19T07:55:45;1.70;;;0.70;;
17207;SDS011;8720;48.488;9.202;2023-11-19T07:58:12;0.90;;;0.60;;
17207;SDS011;8720;48.488;9.202;2023-11-19T08:00:39;1.27;;;0.60;;
17207;SDS011;8720;48.488;9.202;2023-11-19T08:03:07;2.23;;;0.70;;
17207;SDS011;8720;48.488;9.202;2023-11-19T08:05:34;0.93;;;0.60;;
17207;SDS011;8720;48.488;9.202;2023-11-19T08:08:03;0.87;;;0.50;;
17207;SDS011;8720;48.488;9.202;2023-11-19T08:10:31;1.00;;;0.67;;
17207;SDS011;8720;48.488;9.202;2023-11-19T08:13:00;1.93;;;0.60;;
17207;SDS011;8720;48.488;9.202;2023-11-19T08:15:28;1.33;;;0.80;;
17207;SDS011;8720;48.488;9.202;2023-11-19T08:17:55;1.10;;;0.60;;
17207;SDS011;8720;48.488;9.202;2023-11-19T08:20:23;1.10;;;0.50;;
17207;SDS011;8720;48.488;9.202;2023-11-19T08:22:50;0.90;;;0.50;;
17207;SDS011;8720;48.488;9.202;2023-11-19T08:25:18;0.90;;;0.60;;
17207;SDS011;8720;48.488;9.202;2023-11-19T08:27:45;1.20;;;0.60;;
17207;SDS011;8720;48.488;9.202;2023-11-19T08:30:14;1.10;;;0.60;;
17207;SDS011;8720;48.488;9.202;2023-11-19T08:32:42;1.10;;;0.60;;
17207;SDS011;8720;48.488;9.202;2023-11-19T08:35:09;1.77;;;0.70;;
17207;SDS011;8720;48.488;9.202;2023-11-19T08:37:37;0.90;;;0.67;;
17207;SDS011;8720;48.488;9.202;2023-11-19T08:40:05;0.97;;;0.60;;
17207;SDS011;8720;48.488;9.202;2023-11-19T08:42:34;0.90;;;0.60;;
17207;SDS011;8720;48.488;9.202;2023-11-19T08:45:04;1.00;;;0.60;;
17207;SDS011;8720;48.488;9.202;2023-11-19T08:47:36;1.20;;;0.60;;
17207;SDS011;8720;48.488;9.202;2023-11-19T08:50:06;1.00;;;0.70;;
17207;SDS011;8720;48.488;9.202;2023-11-19T08:52:34;1.67;;;0.60;;
17207;SDS011;8720;48.488;9.202;2023-11-19T08:55:02;1.00;;;0.80;;
17207;SDS011;8720;48.488;9.202;2023-11-19T08:57:31;1.80;;;0.80;;
17207;SDS011;8720;48.488;9.202;2023-11-19T08:59:59;1.20;;;0.60;;
17207;SDS011;8720;48.488;9.202;2023-11-19T09:02:26;1.30;;;0.67;;
17207;SDS011;8720;48.488;9.202;2023-11-19T09:04:55;1.10;;;0.80;;
17207;SDS011;8720;48.488;9.202;2023-11-19T09:07:23;1.00;;;0.60;;
17207;SDS011;8720;48.488;9.202;2023-11-19T09:09:51;1.10;;;0.70;;
17207;SDS011;8720;48.488;9.202;2023-11-19T09:12:18;1.00;;;0.73;;
17207;SDS011;8720;48.488;9.202;2023-11-19T09:14:46;2.83;;;0.90;;
17207;SDS011;8720;48.488;9.202;2023-11-19T09:17:14;1.00;;;0.67;;
17207;SDS011;8720;48.488;9.202;2023-11-19T09:19:43;1.10;;;0.70;;
17207;SDS011;8720;48.488;9.202;2023-11-19T09:22:12;0.90;;;0.60;;
17207;SDS011;8720;48.488;9.202;2023-11-19T09:24:40;1.10;;;0.70;;
17207;SDS011;8720;48.488;9.202;2023-11-19T09:27:09;1.00;;;0.60;;
17207;SDS011;8720;48.488;9.202;2023-11-19T09:29:37;1.00;;;0.70;;
17207;SDS011;8720;48.488;9.202;2023-11-19T09:32:06;0.90;;;0.50;;
17207;SDS011;8720;48.488;9.202;2023-11-19T09:34:34;1.00;;;0.60;;
17207;SDS011;8720;48.488;9.202;2023-11-19T09:37:04;1.40;;;0.73;;
17207;SDS011;8720;48.488;9.202;2023-11-19T09:39:34;1.10;;;0.77;;
17207;SDS011;8720;48.488;9.202;2023-11-19T09:42:02;1.20;;;0.80;;
17207;SDS011;8720;48.488;9.202;2023-11-19T09:44:31;1.20;;;1.00;;
17207;SDS011;8720;48.488;9.202;2023-11-19T09:46:59;1.10;;;0.70;;
17207;SDS011;8720;48.488;9.202;2023-11-19T09:49:27;1.17;;;0.93;;
17207;SDS011;8720;48.488;9.202;2023-11-19T09:51:56;1.00;;;0.70;;
17207;SDS011;8720;48.488;9.202;2023-11-19T09:54:24;1.10;;;0.70;;
17207;SDS011;8720;48.488;9.202;2023-11-19T09:56:53;1.00;;;0.70;;
17207;SDS011;8720;48.488;9.202;2023-11-19T09:59:25;1.30;;;0.77;;
17207;SDS011;8720;48.488;9.202;2023-11-19T10:01:53;2.17;;;0.70;;
17207;SDS011;8720;48.488;9.202;2023-11-19T10:04:22;1.47;;;0.70;;
17207;SDS011;8720;48.488;9.202;2023-11-19T10:06:52;1.20;;;0.70;;
17207;SDS011;8720;48.488;9.202;2023-11-19T10:09:19;1.50;;;1.00;;
17207;SDS011;8720;48.488;9.202;2023-11-19T10:11:47;1.00;;;0.70;;
17207;SDS011;8720;48.488;9.202;2023-11-19T10:14:17;1.30;;;0.90;;
17207;SDS011;8720;48.488;9.202;2023-11-19T10:16:51;1.23;;;0.80;;
17207;SDS011;8720;48.488;9.202;2023-11-19T10:19:18;1.10;;;0.60;;
17207;SDS011;8720;48.488;9.202;2023-11-19T10:21:47;0.90;;;0.60;;
17207;SDS011;8720;48.488;9.202;2023-11-19T10:24:15;1.30;;;0.80;;
17207;SDS011;8720;48.488;9.202;2023-11-19T10:26:57;0.90;;;0.70;;
17207;SDS011;8720;48.488;9.202;2023-11-19T10:29:28;0.90;;;0.60;;
17207;SDS011;8720;48.488;9.202;2023-11-19T10:31:57;1.00;;;0.73;;
17207;SDS011;8720;48.488;9.202;2023-11-19T10:34:26;1.10;;;0.73;;
17207;SDS011;8720;48.488;9.202;2023-11-19T10:36:55;1.00;;;0.60;;
17207;SDS011;8720;48.488;9.202;2023-11-19T10:39:23;1.23;;;0.80;;
17207;SDS011;8720;48.488;9.202;2023-11-19T10:42:20;1.20;;;0.87;;
17207;SDS011;8720;48.488;9.202;2023-11-19T10:44:50;1.00;;;0.80;;
17207;SDS011;8720;48.488;9.202;2023-11-19T10:47:18;1.33;;;0.80;;
17207;SDS011;8720;48.488;9.202;2023-11-19T10:49:48;1.47;;;0.80;;
17207;SDS011;8720;48.488;9.202;2023-11-19T10:52:17;1.17;;;0.90;;
17207;SDS011;8720;48.488;9.202;2023-11-19T10:54:48;1.07;;;0.77;;
17207;SDS011;8720;48.488;9.202;2023-11-19T10:57:19;1.20;;;0.80;;
17207;SDS011;8720;48.488;9.202;2023-11-19T10:59:50;1.20;;;0.80;;
17207;SDS011;8720;48.488;9.202;2023-11-19T11:02:27;1.00;;;0.77;;
17207;SDS011;8720;48.488;9.202;2023-11-19T11:05:00;1.20;;;1.00;;
17207;SDS011;8720;48.488;9.202;2023-11-19T11:07:29;1.73;;;0.80;;
17207;SDS011;8720;48.488;9.202;2023-11-19T11:09:58;1.17;;;0.90;;
17207;SDS011;8720;48.488;9.202;2023-11-19T11:12:28;1.47;;;0.80;;
17207;SDS011;8720;48.488;9.202;2023-11-19T11:15:05;1.07;;;0.80;;
17207;SDS011;8720;48.488;9.202;2023-11-19T11:17:35;1.83;;;1.10;;
17207;SDS011;8720;48.488;9.202;2023-11-19T11:20:06;1.43;;;0.97;;
17207;SDS011;8720;48.488;9.202;2023-11-19T11:22:39;1.30;;;0.90;;
17207;SDS011;8720;48.488;9.202;2023-11-19T11:25:23;1.47;;;0.93;;
17207;SDS011;8720;48.488;9.202;2023-11-19T11:28:20;1.20;;;0.90;;
17207;SDS011;8720;48.488;9.202;2023-11-19T11:31:15;1.40;;;0.90;;
17207;SDS011;8720;48.488;9.202;2023-11-19T11:34:01;1.50;;;1.00;;
17207;SDS011;8720;48.488;9.202;2023-11-19T11:37:01;1.60;;;0.90;;
17207;SDS011;8720;48.488;9.202;2023-11-19T11:39:42;1.00;;;0.70;;
17207;SDS011;8720;48.488;9.202;2023-11-19T11:45:03;0.97;;;0.73;;
17207;SDS011;8720;48.488;9.202;2023-11-19T11:50:57;1.73;;;0.80;;
17207;SDS011;8720;48.488;9.202;2023-11-19T11:53:25;1.50;;;0.90;;
17207;SDS011;8720;48.488;9.202;2023-11-19T11:56:01;1.70;;;0.80;;
17207;SDS011;8720;48.488;9.202;2023-11-19T11:58:32;1.10;;;0.90;;
17207;SDS011;8720;48.488;9.202;2023-11-19T12:01:03;1.00;;;0.80;;
17207;SDS011;8720;48.488;9.202;2023-11-19T12:03:33;1.57;;;0.80;;
17207;SDS011;8720;48.488;9.202;2023-11-19T12:06:01;1.10;;;0.60;;
17207;SDS011;8720;48.488;9.202;2023-11-19T12:08:29;1.40;;;0.80;;
17207;SDS011;8720;48.488;9.202;2023-11-19T12:10:57;1.17;;;0.70;;
17207;SDS011;8720;48.488;9.202;2023-11-19T12:13:42;1.30;;;0.90;;
17207;SDS011;8720;48.488;9.202;2023-11-19T12:16:21;1.30;;;0.80;;
17207;SDS011;8720;48.488;9.202;2023-11-19T12:18:50;0.90;;;0.60;;
17207;SDS011;8720;48.488;9.202;2023-11-19T12:21:28;1.33;;;1.10;;
17207;SDS011;8720;48.488;9.202;2023-11-19T12:23:57;1.20;;;1.00;;
17207;SDS011;8720;48.488;9.202;2023-11-19T12:26:33;1.10;;;0.80;;
17207;SDS011;8720;48.488;9.202;2023-11-19T12:29:02;1.10;;;0.80;;
17207;SDS011;8720;48.488;9.202;2023-11-19T12:31:31;1.10;;;0.90;;
17207;SDS011;8720;48.488;9.202;2023-11-19T12:34:07;1.57;;;0.60;;
17207;SDS011;8720;48.488;9.202;2023-11-19T12:36:38;1.17;;;0.83;;
17207;SDS011;8720;48.488;9.202;2023-11-19T12:39:07;4.00;;;0.87;;
17207;SDS011;8720;48.488;9.202;2023-11-19T12:41:53;1.30;;;0.90;;
17207;SDS011;8720;48.488;9.202;2023-11-19T12:44:21;1.57;;;0.70;;
17207;SDS011;8720;48.488;9.202;2023-11-19T12:47:02;1.00;;;0.70;;
17207;SDS011;8720;48.488;9.202;2023-11-19T12:49:33;1.10;;;0.73;;
17207;SDS011;8720;48.488;9.202;2023-11-19T12:52:01;1.00;;;0.73;;
17207;SDS011;8720;48.488;9.202;2023-11-19T12:54:38;2.07;;;0.90;;
17207;SDS011;8720;48.488;9.202;2023-11-19T12:57:07;1.50;;;1.10;;
17207;SDS011;8720;48.488;9.202;2023-11-19T12:59:34;1.53;;;1.00;;
17207;SDS011;8720;48.488;9.202;2023-11-19T13:02:04;1.53;;;1.17;;
17207;SDS011;8720;48.488;9.202;2023-11-19T13:04:34;2.37;;;1.00;;
17207;SDS011;8720;48.488;9.202;2023-11-19T13:07:02;1.20;;;1.00;;
17207;SDS011;8720;48.488;9.202;2023-11-19T13:09:30;1.30;;;0.80;;
17207;SDS011;8720;48.488;9.202;2023-11-19T13:11:58;1.30;;;0.87;;
17207;SDS011;8720;48.488;9.202;2023-11-19T13:14:35;1.30;;;0.90;;
17207;SDS011;8720;48.488;9.202;2023-11-19T13:17:04;1.80;;;1.00;;
17207;SDS011;8720;48.488;9.202;2023-11-19T13:19:32;1.67;;;1.10;;
17207;SDS011;8720;48.488;9.202;2023-11-19T13:22:01;1.20;;;0.97;;
17207;SDS011;8720;48.488;9.202;2023-11-19T13:24:29;1.30;;;0.90;;
17207;SDS011;8720;48.488;9.202;2023-11-19T13:26:57;3.90;;;1.00;;
17207;SDS011;8720;48.488;9.202;2023-11-19T13:29:24;1.50;;;1.00;;
17207;SDS011;8720;48.488;9.202;2023-11-19T13:31:55;1.67;;;1.40;;
17207;SDS011;8720;48.488;9.202;2023-11-19T13:34:23;1.77;;;1.40;;
17207;SDS011;8720;48.488;9.202;2023-11-19T13:36:52;2.73;;;1.10;;
17207;SDS011;8720;48.488;9.202;2023-11-19T13:39:20;4.13;;;1.33;;
17207;SDS011;8720;48.488;9.202;2023-11-19T13:41:49;2.33;;;1.70;;
17207;SDS011;8720;48.488;9.202;2023-11-19T13:44:17;2.90;;;1.67;;
17207;SDS011;8720;48.488;9.202;2023-11-19T13:46:45;2.67;;;1.50;;
17207;SDS011;8720;48.488;9.202;2023-11-19T13:49:13;4.90;;;1.80;;
17207;SDS011;8720;48.488;9.202;2023-11-19T13:51:41;1.87;;;1.30;;
17207;SDS011;8720;48.488;9.202;2023-11-19T13:54:11;2.07;;;1.30;;
17207;SDS011;8720;48.488;9.202;2023-11-19T13:56:39;1.90;;;1.40;;
17207;SDS011;8720;48.488;9.202;2023-11-19T13:59:09;1.43;;;1.10;;
17207;SDS011;8720;48.488;9.202;2023-11-19T14:01:38;2.90;;;1.10;;
17207;SDS011;8720;48.488;9.202;2023-11-19T14:04:06;1.47;;;0.80;;
17207;SDS011;8720;48.488;9.202;2023-11-19T14:06:34;2.87;;;1.73;;
17207;SDS011;8720;48.488;9.202;2023-11-19T14:09:02;2.13;;;1.67;;
17207;SDS011;8720;48.488;9.202;2023-11-19T14:11:33;2.73;;;1.30;;
17207;SDS011;8720;48.488;9.202;2023-11-19T14:14:01;1.70;;;1.20;;
17207;SDS011;8720;48.488;9.202;2023-11-19T14:16:29;1.70;;;0.80;;
17207;SDS011;8720;48.488;9.202;2023-11-19T14:18:57;1.30;;;1.00;;
17207;SDS011;8720;48.488;9.202;2023-11-19T14:21:26;2.53;;;1.10;;
17207;SDS011;8720;48.488;9.202;2023-11-19T14:23:53;2.03;;;1.00;;
17207;SDS011;8720;48.488;9.202;2023-11-19T14:26:21;2.80;;;0.90;;
17207;SDS011;8720;48.488;9.202;2023-11-19T14:28:50;1.87;;;1.00;;
17207;SDS011;8720;48.488;9.202;2023-11-19T14:31:18;2.63;;;0.73;;
17207;SDS011;8720;48.488;9.202;2023-11-19T14:33:46;1.60;;;0.90;;
17207;SDS011;8720;48.488;9.202;2023-11-19T14:36:14;2.37;;;1.10;;
17207;SDS011;8720;48.488;9.202;2023-11-19T14:38:42;2.30;;;1.00;;
17207;SDS011;8720;48.488;9.202;2023-11-19T14:41:13;2.10;;;1.23;;
17207;SDS011;8720;48.488;9.202;2023-11-19T14:43:41;1.40;;;0.90;;
17207;SDS011;8720;48.488;9.202;2023-11-19T14:46:10;1.40;;;0.83;;
17207;SDS011;8720;48.488;9.202;2023-11-19T14:48:38;1.50;;;0.80;;
17207;SDS011;8720;48.488;9.202;2023-11-19T14:51:06;1.40;;;0.80;;
17207;SDS011;8720;48.488;9.202;2023-11-19T14:53:34;1.10;;;0.80;;
17207;SDS011;8720;48.488;9.202;2023-11-19T14:56:01;1.23;;;0.80;;
17207;SDS011;8720;48.488;9.202;2023-11-19T14:58:30;1.47;;;0.90;;
17207;SDS011;8720;48.488;9.202;2023-11-19T15:00:58;1.00;;;0.70;;
17207;SDS011;8720;48.488;9.202;2023-11-19T15:03:27;1.10;;;0.80;;
17207;SDS011;8720;48.488;9.202;2023-11-19T15:05:55;3.47;;;1.10;;
17207;SDS011;8720;48.488;9.202;2023-11-19T15:08:23;1.07;;;0.80;;
17207;SDS011;8720;48.488;9.202;2023-11-19T15:10:52;1.20;;;0.80;;
17207;SDS011;8720;48.488;9.202;2023-11-19T15:13:22;0.93;;;0.70;;
17207;SDS011;8720;48.488;9.202;2023-11-19T15:15:51;1.20;;;0.70;;
17207;SDS011;8720;48.488;9.202;2023-11-19T15:18:21;2.13;;;0.87;;